Time,TemperatureF,DewpointF,PressureIn,WindDirection,WindDirectionDegrees,WindSpeedMPH,WindSpeedGustMPH,Humidity,HourlyPrecipIn,Conditions,Clouds,dailyrainin,SolarRadiationWatts/m^2,SoftwareType,DateUTC
2013-04-25 00:06:00,64.8,59.0,29.93,West,277,1.0,-999.0,82,-99.99,,,0.00,0,weatherlink.com 1.10,2013-04-25 04:06:00,
2013-04-25 00:21:00,64.7,59.0,29.93,NNW,333,0.0,-999.0,82,-99.99,,,0.00,0,weatherlink.com 1.10,2013-04-25 04:21:00,
2013-04-25 00:36:00,64.5,59.0,29.93,WSW,249,0.0,-999.0,82,-99.99,,,0.00,0,weatherlink.com 1.10,2013-04-25 04:36:00,
2013-04-25 00:51:00,64.2,59.0,29.93,NW,308,0.0,-999.0,82,-99.99,,,0.00,0,weatherlink.com 1.10,2013-04-25 04:51:00,
2013-04-25 01:06:00,63.9,59.0,29.94,NW,309,1.0,-999.0,83,-99.99,,,0.00,0,weatherlink.com 1.10,2013-04-25 05:06:00,
2013-04-25 01:21:00,63.9,59.0,29.93,WNW,284,0.0,-999.0,83,-99.99,,,0.00,0,weatherlink.com 1.10,2013-04-25 05:21:00,
2013-04-25 01:36:00,63.7,59.0,29.93,WNW,294,2.0,-999.0,83,-99.99,,,0.00,0,weatherlink.com 1.10,2013-04-25 05:36:00,
2013-04-25 01:51:00,63.4,59.0,29.93,WNW,299,1.0,-999.0,84,-99.99,,,0.00,0,weatherlink.com 1.10,2013-04-25 05:51:00,
2013-04-25 02:06:00,63.2,58.0,29.93,WNW,290,0.0,-999.0,84,-99.99,,,0.00,0,weatherlink.com 1.10,2013-04-25 06:06:00,
2013-04-25 02:21:00,62.9,58.0,29.92,West,277,0.0,-999.0,85,-99.99,,,0.00,0,weatherlink.com 1.10,2013-04-25 06:21:00,
2013-04-25 02:36:00,62.7,58.0,29.92,NNW,338,2.0,-999.0,85,-99.99,,,0.00,0,weatherlink.com 1.10,2013-04-25 06:36:00,
2013-04-25 02:51:00,62.6,58.0,29.92,NW,318,0.0,-999.0,86,-99.99,,,0.00,0,weatherlink.com 1.10,2013-04-25 06:51:00,
2013-04-25 03:06:00,62.4,59.0,29.92,West,269,0.0,-999.0,87,-99.99,,,0.00,0,weatherlink.com 1.10,2013-04-25 07:06:00,
2013-04-25 03:21:00,62.7,59.0,29.92,NW,315,0.0,-999.0,87,-99.99,,,0.00,0,weatherlink.com 1.10,2013-04-25 07:21:00,
2013-04-25 03:36:00,62.7,59.0,29.92,NW,321,1.0,-999.0,86,-99.99,,,0.00,0,weatherlink.com 1.10,2013-04-25 07:36:00,
2013-04-25 03:51:00,62.7,59.0,29.92,WNW,287,0.0,-999.0,86,-99.99,,,0.00,0,weatherlink.com 1.10,2013-04-25 07:51:00,
2013-04-25 04:06:00,62.9,59.0,29.92,WNW,303,0.0,-999.0,86,-99.99,,,0.00,0,weatherlink.com 1.10,2013-04-25 08:06:00,
2013-04-25 04:21:00,62.9,59.0,29.93,NW,325,0.0,-999.0,86,-99.99,,,0.00,0,weatherlink.com 1.10,2013-04-25 08:21:00,
2013-04-25 04:36:00,62.9,58.0,29.94,NNW,341,0.0,-999.0,85,-99.99,,,0.00,0,weatherlink.com 1.10,2013-04-25 08:36:00,
2013-04-25 04:51:00,62.9,58.0,29.95,NNW,336,0.0,-999.0,85,-99.99,,,0.00,0,weatherlink.com 1.10,2013-04-25 08:51:00,
2013-04-25 05:06:00,62.9,58.0,29.95,NNW,336,0.0,-999.0,85,-99.99,,,0.00,0,weatherlink.com 1.10,2013-04-25 09:06:00,
2013-04-25 05:21:00,62.6,58.0,29.97,NNW,336,0.0,-999.0,86,-99.99,,,0.00,0,weatherlink.com 1.10,2013-04-25 09:21:00,
2013-04-25 05:36:00,62.7,58.0,29.98,NNW,339,0.0,-999.0,85,-99.99,,,0.00,0,weatherlink.com 1.10,2013-04-25 09:36:00,
2013-04-25 05:51:00,62.7,58.0,30.00,NNE,22,0.0,-999.0,85,-99.99,,,0.00,0,weatherlink.com 1.10,2013-04-25 09:51:00,
2013-04-25 06:06:00,62.7,58.0,30.00,SSE,155,9.0,-999.0,85,-99.99,,,0.00,0,weatherlink.com 1.10,2013-04-25 10:06:00,
2013-04-25 06:21:00,60.1,50.0,30.04,SE,136,9.0,-999.0,70,-99.99,,,0.00,0,weatherlink.com 1.10,2013-04-25 10:21:00,
2013-04-25 06:36:00,58.6,48.0,30.05,SSE,155,2.0,-999.0,69,-99.99,,,0.00,0,weatherlink.com 1.10,2013-04-25 10:36:00,
2013-04-25 06:51:00,58.0,47.0,30.06,SE,126,6.0,-999.0,66,-99.99,,,0.00,0,weatherlink.com 1.10,2013-04-25 10:51:00,
2013-04-25 07:06:00,57.6,44.0,30.07,SE,140,9.0,-999.0,61,-99.99,,,0.00,7,weatherlink.com 1.10,2013-04-25 11:06:00,
2013-04-25 07:21:00,57.2,46.0,30.09,SSE,148,4.0,-999.0,66,-99.99,,,0.00,18,weatherlink.com 1.10,2013-04-25 11:21:00,
2013-04-25 07:36:00,56.6,46.0,30.09,SE,133,8.0,-999.0,68,-99.99,,,0.00,23,weatherlink.com 1.10,2013-04-25 11:36:00,
2013-04-25 07:52:00,55.9,45.0,30.11,SSE,163,7.0,-999.0,67,-99.99,,,0.00,63,weatherlink.com 1.10,2013-04-25 11:52:00,
2013-04-25 08:07:00,55.7,45.0,30.11,SSE,163,5.0,-999.0,67,-99.99,,,0.00,134,weatherlink.com 1.10,2013-04-25 12:07:00,
2013-04-25 08:22:00,55.6,45.0,30.12,ESE,109,9.0,-999.0,68,-99.99,,,0.00,118,weatherlink.com 1.10,2013-04-25 12:22:00,
2013-04-25 08:37:00,54.7,45.0,30.12,SE,126,6.0,-999.0,69,-99.99,,,0.00,165,weatherlink.com 1.10,2013-04-25 12:37:00,
2013-04-25 08:52:00,54.5,43.0,30.12,SE,139,6.0,-999.0,66,-99.99,,,0.00,192,weatherlink.com 1.10,2013-04-25 12:52:00,
2013-04-25 09:07:00,54.7,43.0,30.14,ESE,119,4.0,-999.0,64,-99.99,,,0.00,229,weatherlink.com 1.10,2013-04-25 13:07:00,
2013-04-25 09:22:00,54.2,40.0,30.14,SSE,157,10.0,-999.0,60,-99.99,,,0.00,279,weatherlink.com 1.10,2013-04-25 13:22:00,
2013-04-25 09:37:00,54.7,40.0,30.15,SSE,151,4.0,-999.0,58,-99.99,,,0.00,332,weatherlink.com 1.10,2013-04-25 13:37:00,
2013-04-25 09:52:00,54.4,40.0,30.15,SE,130,4.0,-999.0,59,-99.99,,,0.00,294,weatherlink.com 1.10,2013-04-25 13:52:00,
2013-04-25 10:07:00,54.8,41.0,30.15,SE,134,4.0,-999.0,60,-99.99,,,0.00,513,weatherlink.com 1.10,2013-04-25 14:07:00,
2013-04-25 10:22:00,55.9,42.0,30.16,ESE,105,1.0,-999.0,59,-99.99,,,0.00,373,weatherlink.com 1.10,2013-04-25 14:22:00,
2013-04-25 10:37:00,55.4,41.0,30.16,SE,136,4.0,-999.0,59,-99.99,,,0.00,318,weatherlink.com 1.10,2013-04-25 14:37:00,
2013-04-25 10:52:00,56.3,42.0,30.17,South,180,5.0,-999.0,59,-99.99,,,0.00,942,weatherlink.com 1.10,2013-04-25 14:52:00,
2013-04-25 11:07:00,55.6,42.0,30.17,SSE,150,9.0,-999.0,61,-99.99,,,0.00,366,weatherlink.com 1.10,2013-04-25 15:07:00,
2013-04-25 11:22:00,56.0,41.0,30.17,ESE,103,7.0,-999.0,58,-99.99,,,0.00,258,weatherlink.com 1.10,2013-04-25 15:22:00,
2013-04-25 11:37:00,54.8,41.0,30.17,SE,125,7.0,-999.0,59,-99.99,,,0.00,257,weatherlink.com 1.10,2013-04-25 15:37:00,
2013-04-25 12:07:00,57.6,42.0,30.17,ESE,123,0.0,-999.0,56,-99.99,,,0.00,780,weatherlink.com 1.10,2013-04-25 16:07:00,
2013-04-25 12:22:00,58.0,44.0,30.16,SE,136,0.0,-999.0,60,-99.99,,,0.00,846,weatherlink.com 1.10,2013-04-25 16:22:00,
2013-04-25 12:37:00,60.1,43.0,30.16,SE,142,2.0,-999.0,54,-99.99,,,0.00,940,weatherlink.com 1.10,2013-04-25 16:37:00,
2013-04-25 12:52:00,58.9,43.0,30.16,SE,125,0.0,-999.0,57,-99.99,,,0.00,821,weatherlink.com 1.10,2013-04-25 16:52:00,
2013-04-25 13:07:00,59.3,41.0,30.16,ESE,109,7.0,-999.0,51,-99.99,,,0.00,795,weatherlink.com 1.10,2013-04-25 17:07:00,
2013-04-25 13:22:00,58.7,41.0,30.17,SE,137,1.0,-999.0,53,-99.99,,,0.00,960,weatherlink.com 1.10,2013-04-25 17:22:00,
2013-04-25 13:37:00,59.0,40.0,30.17,SE,130,0.0,-999.0,50,-99.99,,,0.00,721,weatherlink.com 1.10,2013-04-25 17:37:00,
2013-04-25 13:52:00,61.2,43.0,30.17,SE,140,5.0,-999.0,52,-99.99,,,0.00,615,weatherlink.com 1.10,2013-04-25 17:52:00,
2013-04-25 14:07:00,60.2,41.0,30.17,SE,135,2.0,-999.0,49,-99.99,,,0.00,540,weatherlink.com 1.10,2013-04-25 18:07:00,
2013-04-25 14:37:00,60.1,42.0,30.17,ESE,119,5.0,-999.0,52,-99.99,,,0.00,432,weatherlink.com 1.10,2013-04-25 18:37:00,
2013-04-25 14:52:00,59.8,40.0,30.17,ESE,118,0.0,-999.0,48,-99.99,,,0.00,362,weatherlink.com 1.10,2013-04-25 18:52:00,
2013-04-25 15:07:00,60.4,41.0,30.17,South,179,0.0,-999.0,50,-99.99,,,0.00,267,weatherlink.com 1.10,2013-04-25 19:07:00,
2013-04-25 15:22:00,59.8,40.0,30.17,ESE,103,5.0,-999.0,48,-99.99,,,0.00,97,weatherlink.com 1.10,2013-04-25 19:22:00,
2013-04-25 15:37:00,59.5,41.0,30.16,SE,140,4.0,-999.0,50,-99.99,,,0.00,149,weatherlink.com 1.10,2013-04-25 19:37:00,
2013-04-25 15:52:00,59.9,40.0,30.16,ESE,122,4.0,-999.0,48,-99.99,,,0.00,144,weatherlink.com 1.10,2013-04-25 19:52:00,
2013-04-25 16:07:00,59.3,41.0,30.15,SW,236,0.0,-999.0,51,-99.99,,,0.00,246,weatherlink.com 1.10,2013-04-25 20:07:00,
2013-04-25 16:22:00,59.8,40.0,30.15,SSE,148,0.0,-999.0,49,-99.99,,,0.00,158,weatherlink.com 1.10,2013-04-25 20:22:00,
2013-04-25 16:37:00,59.9,38.0,30.14,SE,130,4.0,-999.0,44,-99.99,,,0.00,93,weatherlink.com 1.10,2013-04-25 20:37:00,
2013-04-25 16:52:00,59.8,40.0,30.14,West,281,0.0,-999.0,48,-99.99,,,0.00,77,weatherlink.com 1.10,2013-04-25 20:52:00,
2013-04-25 17:07:00,60.2,36.0,30.15,South,187,0.0,-999.0,41,-99.99,,,0.00,127,weatherlink.com 1.10,2013-04-25 21:07:00,
2013-04-25 17:22:00,60.9,35.0,30.15,SE,144,0.0,-999.0,38,-99.99,,,0.00,193,weatherlink.com 1.10,2013-04-25 21:22:00,
2013-04-25 17:37:00,61.0,36.0,30.16,SE,130,2.0,-999.0,39,-99.99,,,0.00,149,weatherlink.com 1.10,2013-04-25 21:37:00,
2013-04-25 17:52:00,62.1,37.0,30.16,SSE,164,0.0,-999.0,39,-99.99,,,0.00,348,weatherlink.com 1.10,2013-04-25 21:52:00,
2013-04-25 18:07:00,62.3,38.0,30.16,SSE,157,2.0,-999.0,41,-99.99,,,0.00,258,weatherlink.com 1.10,2013-04-25 22:07:00,
2013-04-25 18:22:00,61.2,36.0,30.16,WSW,250,0.0,-999.0,39,-99.99,,,0.00,264,weatherlink.com 1.10,2013-04-25 22:22:00,
2013-04-25 18:37:00,60.7,44.0,30.16,SW,231,0.0,-999.0,54,-99.99,,,0.00,95,weatherlink.com 1.10,2013-04-25 22:37:00,
2013-04-25 18:52:00,58.9,43.0,30.15,WSW,239,0.0,-999.0,57,-99.99,,,0.00,158,weatherlink.com 1.10,2013-04-25 22:52:00,
2013-04-25 19:07:00,57.8,44.0,30.15,WNW,294,3.0,-999.0,61,-99.99,,,0.00,91,weatherlink.com 1.10,2013-04-25 23:07:00,
2013-04-25 19:22:00,56.6,44.0,30.15,SSW,194,0.0,-999.0,64,-99.99,,,0.00,21,weatherlink.com 1.10,2013-04-25 23:22:00,
2013-04-25 19:37:00,55.1,45.0,30.16,WNW,288,3.0,-999.0,68,-99.99,,,0.00,9,weatherlink.com 1.10,2013-04-25 23:37:00,
2013-04-25 19:52:00,53.6,44.0,30.17,WNW,286,0.0,-999.0,70,-99.99,,,0.00,0,weatherlink.com 1.10,2013-04-25 23:52:00,
2013-04-25 20:07:00,52.5,44.0,30.17,WNW,287,0.0,-999.0,73,-99.99,,,0.00,0,weatherlink.com 1.10,2013-04-26 00:07:00,
2013-04-25 20:23:00,51.7,44.0,30.17,WNW,286,0.0,-999.0,75,-99.99,,,0.00,0,weatherlink.com 1.10,2013-04-26 00:23:00,
2013-04-25 20:38:00,51.1,44.0,30.18,WNW,286,1.0,-999.0,77,-99.99,,,0.00,0,weatherlink.com 1.10,2013-04-26 00:38:00,
2013-04-25 20:53:00,50.5,44.0,30.19,WNW,286,0.0,-999.0,78,-99.99,,,0.00,0,weatherlink.com 1.10,2013-04-26 00:53:00,
2013-04-25 21:08:00,49.9,44.0,30.20,WNW,286,0.0,-999.0,79,-99.99,,,0.00,0,weatherlink.com 1.10,2013-04-26 01:08:00,
2013-04-25 21:23:00,49.6,44.0,30.20,WNW,286,0.0,-999.0,81,-99.99,,,0.00,0,weatherlink.com 1.10,2013-04-26 01:23:00,
2013-04-25 21:38:00,48.6,44.0,30.20,WNW,286,0.0,-999.0,83,-99.99,,,0.00,0,weatherlink.com 1.10,2013-04-26 01:38:00,
2013-04-25 21:53:00,48.2,44.0,30.22,WNW,286,0.0,-999.0,85,-99.99,,,0.00,0,weatherlink.com 1.10,2013-04-26 01:53:00,
2013-04-25 22:08:00,47.1,43.0,30.22,WNW,286,0.0,-999.0,86,-99.99,,,0.00,0,weatherlink.com 1.10,2013-04-26 02:08:00,
2013-04-25 22:23:00,46.5,43.0,30.22,WNW,286,0.0,-999.0,88,-99.99,,,0.00,0,weatherlink.com 1.10,2013-04-26 02:23:00,
2013-04-25 22:38:00,45.7,43.0,30.22,WNW,287,0.0,-999.0,90,-99.99,,,0.00,0,weatherlink.com 1.10,2013-04-26 02:38:00,
2013-04-25 22:53:00,45.1,43.0,30.22,WNW,286,0.0,-999.0,91,-99.99,,,0.00,0,weatherlink.com 1.10,2013-04-26 02:53:00,
2013-04-25 23:08:00,44.6,43.0,30.22,WNW,286,0.0,-999.0,92,-99.99,,,0.00,0,weatherlink.com 1.10,2013-04-26 03:08:00,
2013-04-25 23:23:00,44.5,43.0,30.23,WNW,286,0.0,-999.0,93,-99.99,,,0.00,0,weatherlink.com 1.10,2013-04-26 03:23:00,
2013-04-25 23:38:00,44.5,43.0,30.22,WNW,286,0.0,-999.0,94,-99.99,,,0.00,0,weatherlink.com 1.10,2013-04-26 03:38:00,
2013-04-25 23:53:00,44.1,43.0,30.22,WNW,286,0.0,-999.0,94,-99.99,,,0.00,0,weatherlink.com 1.10,2013-04-26 03:53:00,